createdAt,value
2023-01-17T00:02:20.090Z,96440.16
2023-01-17T00:04:46.984Z,96429.13
2023-01-17T00:07:15.131Z,96438.06
2023-01-17T00:09:43.318Z,96441.91
2023-01-17T00:12:10.166Z,96447.41
2023-01-17T00:14:37.358Z,96451.47
2023-01-17T00:17:04.217Z,96445.44
2023-01-17T00:19:31.524Z,96448.16
2023-01-17T00:21:58.353Z,96459.69
2023-01-17T00:24:25.175Z,96456.63
2023-01-17T00:26:52.187Z,96460.63
2023-01-17T00:29:18.978Z,96456.06
2023-01-17T00:31:45.986Z,96458.44
2023-01-17T00:34:13.083Z,96466.06
2023-01-17T00:36:40.022Z,96470.97
2023-01-17T00:39:07.078Z,96475.22
2023-01-17T00:41:33.913Z,96468.16
2023-01-17T00:44:00.994Z,96466.78
2023-01-17T00:46:28.265Z,96462.19
2023-01-17T00:48:55.354Z,96468.44
2023-01-17T00:51:22.128Z,96465.09
2023-01-17T00:53:49.487Z,96478.13
2023-01-17T00:56:16.320Z,96476.16
2023-01-17T00:58:43.153Z,96475.09
2023-01-17T01:01:10.241Z,96478.84
2023-01-17T01:03:37.169Z,96468.44
2023-01-17T01:06:04.235Z,96467.72
2023-01-17T01:08:31.097Z,96471.97
2023-01-17T01:10:58.282Z,96473.75
2023-01-17T01:13:25.178Z,96470.44
2023-01-17T01:15:52.279Z,96473.88
2023-01-17T01:18:19.181Z,96475.31
2023-01-17T01:20:46.087Z,96467.16
2023-01-17T01:23:12.929Z,96470.09
2023-01-17T01:25:39.878Z,96463.94
2023-01-17T01:28:06.721Z,96469.81
2023-01-17T01:30:33.643Z,96474.31
2023-01-17T01:33:00.641Z,96475.03
2023-01-17T01:35:27.499Z,96480.31
2023-01-17T01:37:54.296Z,96474.16
2023-01-17T01:40:21.244Z,96476.75
2023-01-17T01:42:48.075Z,96474.16
2023-01-17T01:45:14.966Z,96469.91
2023-01-17T01:47:41.719Z,96467.41
2023-01-17T01:50:08.720Z,96475.03
2023-01-17T01:52:35.560Z,96465.31
2023-01-17T01:55:02.557Z,96464.38
2023-01-17T01:57:29.459Z,96464.88
2023-01-17T01:59:56.299Z,96464.06
2023-01-17T02:02:23.484Z,96465.63
2023-01-17T02:04:50.320Z,96474.47
2023-01-17T02:07:17.247Z,96473.25
2023-01-17T02:09:44.243Z,96463.44
2023-01-17T02:12:11.396Z,96460.63
2023-01-17T02:14:38.381Z,96455.00
2023-01-17T02:17:05.232Z,96449.78
2023-01-17T02:19:32.453Z,96449.56
2023-01-17T02:21:59.291Z,96450.34
2023-01-17T02:24:27.032Z,96441.97
2023-01-17T02:26:53.869Z,96447.81
2023-01-17T02:29:20.746Z,96455.00
2023-01-17T02:31:47.672Z,96454.06
2023-01-17T02:34:14.530Z,96451.97
2023-01-17T02:36:41.844Z,96451.75
2023-01-17T02:39:09.204Z,96454.69
2023-01-17T02:41:36.099Z,96454.81
2023-01-17T02:44:02.954Z,96456.56
2023-01-17T02:46:29.901Z,96456.34
2023-01-17T02:48:56.898Z,96456.13
2023-01-17T02:51:24.040Z,96451.16
2023-01-17T02:53:50.975Z,96461.97
2023-01-17T02:56:17.854Z,96459.47
2023-01-17T02:58:44.658Z,96470.31
2023-01-17T03:01:11.974Z,96466.88
2023-01-17T03:03:38.962Z,96461.56
2023-01-17T03:06:05.742Z,96460.56
2023-01-17T03:08:33.017Z,96465.97
2023-01-17T03:10:59.908Z,96467.41
2023-01-17T03:13:27.303Z,96471.06
2023-01-17T03:15:54.184Z,96469.69
2023-01-17T03:18:21.250Z,96469.59
2023-01-17T03:20:48.159Z,96466.16
2023-01-17T03:23:15.135Z,96463.25
2023-01-17T03:25:41.998Z,96472.41
2023-01-17T03:28:08.856Z,96472.75
2023-01-17T03:30:35.934Z,96475.53
2023-01-17T03:33:03.155Z,96470.84
2023-01-17T03:35:30.077Z,96479.50
2023-01-17T03:37:57.130Z,96479.09
2023-01-17T03:40:24.461Z,96483.56
2023-01-17T03:42:51.367Z,96482.81
2023-01-17T03:45:18.348Z,96490.31
2023-01-17T03:47:45.419Z,96481.75
2023-01-17T03:50:12.517Z,96485.72
2023-01-17T03:52:39.447Z,96491.88
2023-01-17T03:55:07.497Z,96484.91
2023-01-17T03:57:34.411Z,96493.44
2023-01-17T04:00:01.464Z,96497.19
2023-01-17T04:02:28.412Z,96494.06
2023-01-17T04:04:55.495Z,96505.00
2023-01-17T04:07:22.397Z,96502.81
2023-01-17T04:09:49.236Z,96502.28
2023-01-17T04:12:16.261Z,96504.38
2023-01-17T04:14:43.238Z,96507.00
2023-01-17T04:17:10.164Z,96509.28
2023-01-17T04:19:37.248Z,96505.41
2023-01-17T04:22:04.055Z,96502.09
2023-01-17T04:24:30.961Z,96500.63
2023-01-17T04:26:59.198Z,96504.69
2023-01-17T04:29:26.191Z,96503.03
2023-01-17T04:31:53.158Z,96503.03
2023-01-17T04:34:20.307Z,96501.34
2023-01-17T04:36:47.265Z,96496.28
2023-01-17T04:39:14.567Z,96506.78
2023-01-17T04:41:41.443Z,96499.25
2023-01-17T04:44:08.553Z,96498.25
2023-01-17T04:46:35.373Z,96499.06
2023-01-17T04:49:02.250Z,96498.03
2023-01-17T04:51:29.061Z,96501.56
2023-01-17T04:53:55.914Z,96497.38
2023-01-17T04:56:24.854Z,96489.72
2023-01-17T04:58:51.717Z,96500.31
2023-01-17T05:01:18.693Z,96499.28
2023-01-17T05:03:45.595Z,96496.25
2023-01-17T05:06:12.440Z,96493.22
2023-01-17T05:08:39.513Z,96503.25
2023-01-17T05:11:06.293Z,96510.84
2023-01-17T05:13:33.755Z,96512.41
2023-01-17T05:16:00.641Z,96515.53
2023-01-17T05:18:27.587Z,96514.91
2023-01-17T05:20:54.461Z,96511.91
2023-01-17T05:23:21.345Z,96515.53
2023-01-17T05:25:48.389Z,96523.03
2023-01-17T05:28:15.266Z,96518.97
2023-01-17T05:30:42.248Z,96519.91
2023-01-17T05:33:09.074Z,96523.25
2023-01-17T05:35:36.444Z,96525.13
2023-01-17T05:38:03.323Z,96521.97
2023-01-17T05:40:30.154Z,96523.66
2023-01-17T05:42:56.922Z,96530.53
2023-01-17T05:45:23.978Z,96526.56
2023-01-17T05:47:50.899Z,96538.63
2023-01-17T05:50:17.724Z,96535.72
2023-01-17T05:52:44.524Z,96537.59
2023-01-17T05:55:11.411Z,96550.75
2023-01-17T05:57:38.253Z,96552.72
2023-01-17T06:00:07.428Z,96551.38
2023-01-17T06:02:34.246Z,96548.75
2023-01-17T06:05:03.329Z,96563.56
2023-01-17T06:07:30.553Z,96571.94
2023-01-17T06:09:57.381Z,96571.94
2023-01-17T06:12:24.262Z,96575.38
2023-01-17T06:14:51.110Z,96577.19
2023-01-17T06:17:18.091Z,96587.19
2023-01-17T06:19:45.128Z,96585.53
2023-01-17T06:22:11.965Z,96583.44
2023-01-17T06:24:38.834Z,96595.31
2023-01-17T06:27:05.860Z,96591.47
2023-01-17T06:29:32.696Z,96593.75
2023-01-17T06:32:01.624Z,96600.72
2023-01-17T06:34:29.080Z,96604.03
2023-01-17T06:36:56.081Z,96605.44
2023-01-17T06:39:22.908Z,96611.28
2023-01-17T06:41:49.719Z,96607.75
2023-01-17T06:44:16.551Z,96605.97
2023-01-17T06:46:43.523Z,96613.78
2023-01-17T06:49:10.321Z,96614.41
2023-01-17T06:51:37.193Z,96619.81
2023-01-17T06:54:03.987Z,96623.59
2023-01-17T06:56:30.842Z,96631.50
2023-01-17T06:58:57.674Z,96640.66
2023-01-17T07:01:24.928Z,96646.28
2023-01-17T07:03:51.869Z,96650.31
2023-01-17T07:06:18.847Z,96651.69
2023-01-17T07:08:45.704Z,96665.97
2023-01-17T07:11:12.653Z,96664.19
2023-01-17T07:13:39.455Z,96671.06
2023-01-17T07:16:06.289Z,96670.75
2023-01-17T07:18:33.146Z,96669.94
2023-01-17T07:20:59.999Z,96659.38
2023-01-17T07:23:27.152Z,96668.38
2023-01-17T07:25:53.971Z,96673.97
2023-01-17T07:28:20.799Z,96674.19
2023-01-17T07:30:47.728Z,96680.66
2023-01-17T07:33:14.635Z,96675.13
2023-01-17T07:35:41.700Z,96678.44
2023-01-17T07:38:08.900Z,96687.81
2023-01-17T07:40:42.071Z,96681.00
2023-01-17T07:43:09.274Z,96690.00
2023-01-17T07:45:36.088Z,96698.75
2023-01-17T07:48:04.118Z,96702.63
2023-01-17T07:50:31.058Z,96712.78
2023-01-17T07:52:57.936Z,96697.53
2023-01-17T07:55:24.808Z,96701.69
2023-01-17T07:57:51.843Z,96702.69
2023-01-17T08:00:18.745Z,96701.16
2023-01-17T08:02:45.666Z,96705.75
2023-01-17T08:05:12.515Z,96709.06
2023-01-17T08:07:39.320Z,96696.44
2023-01-17T08:10:06.211Z,96706.13
2023-01-17T08:12:33.119Z,96702.03
2023-01-17T08:14:59.954Z,96708.13
2023-01-17T08:17:26.791Z,96706.66
2023-01-17T08:19:53.627Z,96712.25
2023-01-17T08:22:20.414Z,96709.50
2023-01-17T08:24:47.537Z,96710.00
2023-01-17T08:27:14.458Z,96714.47
2023-01-17T08:29:41.322Z,96719.25
2023-01-17T08:32:08.376Z,96716.50
2023-01-17T08:34:35.258Z,96717.38
2023-01-17T08:37:02.106Z,96719.47
2023-01-17T08:39:28.923Z,96712.00
2023-01-17T08:41:55.767Z,96709.00
2023-01-17T08:44:22.574Z,96711.66
2023-01-17T08:46:49.387Z,96712.91
2023-01-17T08:49:16.183Z,96703.91
2023-01-17T08:51:43.046Z,96707.84
2023-01-17T08:54:09.929Z,96707.88
2023-01-17T08:56:36.719Z,96714.16
2023-01-17T08:59:03.559Z,96713.16
2023-01-17T09:01:30.552Z,96713.16
2023-01-17T09:03:57.520Z,96716.19
2023-01-17T09:06:24.427Z,96718.78
2023-01-17T09:08:51.269Z,96724.19
2023-01-17T09:11:18.066Z,96732.44
2023-01-17T09:13:44.969Z,96736.09
2023-01-17T09:16:11.990Z,96746.44
2023-01-17T09:18:39.034Z,96761.56
2023-01-17T09:21:05.885Z,96761.75
2023-01-17T09:23:35.306Z,96761.75
2023-01-17T09:26:02.218Z,96754.78
2023-01-17T09:28:29.029Z,96758.19
2023-01-17T09:30:56.037Z,96762.38
2023-01-17T09:33:22.826Z,96764.25
2023-01-17T09:35:49.735Z,96768.03
2023-01-17T09:38:16.579Z,96778.13
2023-01-17T09:40:43.432Z,96774.38
2023-01-17T09:43:10.203Z,96764.66
2023-01-17T09:45:37.212Z,96759.16
2023-01-17T09:48:04.539Z,96767.50
2023-01-17T09:50:31.365Z,96756.34
2023-01-17T09:52:58.483Z,96751.84
2023-01-17T09:55:25.346Z,96756.13
2023-01-17T09:57:52.260Z,96750.47
2023-01-17T10:00:21.933Z,96748.59
2023-01-17T10:02:48.991Z,96741.25
2023-01-17T10:05:15.915Z,96730.19
2023-01-17T10:07:42.700Z,96725.59
2023-01-17T10:10:09.573Z,96730.38
2023-01-17T10:12:36.452Z,96724.97
2023-01-17T10:15:03.324Z,96720.31
2023-01-17T10:17:30.303Z,96708.81
2023-01-17T10:19:57.690Z,96704.81
2023-01-17T10:22:24.687Z,96697.22
2023-01-17T10:24:51.677Z,96688.34
2023-01-17T10:27:18.557Z,96687.72
2023-01-17T10:29:45.345Z,96689.00
2023-01-17T10:32:12.176Z,96681.88
2023-01-17T10:34:39.527Z,96678.97
2023-01-17T10:37:06.349Z,96673.34
2023-01-17T10:39:33.936Z,96680.28
2023-01-17T10:42:00.745Z,96675.78
2023-01-17T10:44:27.588Z,96676.66
2023-01-17T10:46:54.522Z,96671.25
2023-01-17T10:49:21.343Z,96653.88
2023-01-17T10:51:48.232Z,96652.72
2023-01-17T10:54:15.116Z,96641.34
2023-01-17T10:56:42.016Z,96622.72
2023-01-17T10:59:09.267Z,96624.47
2023-01-17T11:01:36.260Z,96616.44
2023-01-17T11:04:03.176Z,96619.03
2023-01-17T11:06:29.999Z,96626.66
2023-01-17T11:08:57.050Z,96633.53
2023-01-17T11:11:23.821Z,96621.66
2023-01-17T11:13:50.703Z,96624.50
2023-01-17T11:16:17.516Z,96620.59
2023-01-17T11:18:44.389Z,96617.84
2023-01-17T11:21:11.348Z,96608.72
2023-01-17T11:23:38.144Z,96611.56
2023-01-17T11:26:04.973Z,96607.03
2023-01-17T11:28:31.798Z,96605.75
2023-01-17T11:30:58.735Z,96600.50
2023-01-17T11:33:25.601Z,96588.38
2023-01-17T11:35:52.586Z,96585.31
2023-01-17T11:38:19.521Z,96591.25
2023-01-17T11:40:46.495Z,96590.53
2023-01-17T11:43:13.407Z,96592.91
2023-01-17T11:45:40.451Z,96590.72
2023-01-17T11:48:07.269Z,96587.31
2023-01-17T11:50:34.660Z,96589.69
2023-01-17T11:53:01.517Z,96587.47
2023-01-17T11:55:28.309Z,96597.19
2023-01-17T11:57:56.511Z,96587.09
2023-01-17T12:00:23.649Z,96578.19
2023-01-17T12:02:50.691Z,96587.91
2023-01-17T12:05:17.664Z,96586.50
2023-01-17T12:07:44.484Z,96591.00
2023-01-17T12:10:11.471Z,96585.31
2023-01-17T12:12:38.459Z,96586.00
2023-01-17T12:15:05.386Z,96577.22
2023-01-17T12:17:32.976Z,96579.38
2023-01-17T12:19:59.787Z,96579.84
2023-01-17T12:22:27.596Z,96569.50
2023-01-17T12:24:54.472Z,96575.19
2023-01-17T12:27:21.458Z,96573.66
2023-01-17T12:29:48.647Z,96561.53
2023-01-17T12:32:15.452Z,96555.59
2023-01-17T12:34:42.374Z,96545.50
2023-01-17T12:37:09.238Z,96529.81
2023-01-17T12:39:36.150Z,96526.56
2023-01-17T12:42:03.089Z,96523.72
2023-01-17T12:44:29.911Z,96513.00
2023-01-17T12:46:56.737Z,96504.19
2023-01-17T12:49:24.050Z,96508.72
2023-01-17T12:51:52.953Z,96509.19
2023-01-17T12:54:19.868Z,96516.47
2023-01-17T12:56:46.749Z,96511.81
2023-01-17T12:59:13.597Z,96519.38
2023-01-17T13:01:40.592Z,96520.41
2023-01-17T13:04:07.617Z,96522.84
2023-01-17T13:06:34.599Z,96522.91
2023-01-17T13:09:03.896Z,96528.16
2023-01-17T13:11:30.831Z,96531.22
2023-01-17T13:13:57.770Z,96524.03
2023-01-17T13:16:24.609Z,96523.97
2023-01-17T13:18:51.681Z,96518.75
2023-01-17T13:21:18.915Z,96512.78
2023-01-17T13:23:45.845Z,96515.38
2023-01-17T13:26:12.756Z,96506.56
2023-01-17T13:28:39.775Z,96511.94
2023-01-17T13:31:06.946Z,96506.97
2023-01-17T13:33:33.761Z,96504.97
2023-01-17T13:36:00.558Z,96502.97
2023-01-17T13:38:27.414Z,96494.03
2023-01-17T13:40:54.272Z,96487.63
2023-01-17T13:43:21.092Z,96491.88
2023-01-17T13:45:48.000Z,96494.50
2023-01-17T13:48:14.963Z,96500.56
2023-01-17T13:50:41.804Z,96494.84
2023-01-17T13:53:08.633Z,96509.31
2023-01-17T13:55:35.432Z,96511.34
2023-01-17T13:58:02.399Z,96515.06
2023-01-17T14:00:29.257Z,96507.59
2023-01-17T14:02:56.233Z,96509.72
2023-01-17T14:05:23.252Z,96507.91
2023-01-17T14:07:50.174Z,96493.31
2023-01-17T14:10:17.217Z,96495.47
2023-01-17T14:12:44.096Z,96492.22
2023-01-17T14:15:10.907Z,96478.22
2023-01-17T14:17:37.725Z,96473.59
2023-01-17T14:20:04.524Z,96472.50
2023-01-17T14:22:31.598Z,96464.78
2023-01-17T14:24:58.444Z,96450.91
2023-01-17T14:27:25.563Z,96443.78
2023-01-17T14:29:52.484Z,96436.78
2023-01-17T14:32:19.307Z,96425.84
2023-01-17T14:34:46.131Z,96432.88
2023-01-17T14:37:12.995Z,96432.94
2023-01-17T14:39:39.780Z,96425.81
2023-01-17T14:42:06.749Z,96412.13
2023-01-17T14:44:34.218Z,96401.84
2023-01-17T14:47:01.074Z,96414.53
2023-01-17T14:49:27.885Z,96415.56
2023-01-17T14:51:54.899Z,96418.44
2023-01-17T14:54:21.860Z,96417.41
2023-01-17T14:56:48.738Z,96412.97
2023-01-17T14:59:15.501Z,96407.22
2023-01-17T15:01:42.569Z,96396.66
2023-01-17T15:04:09.508Z,96395.22
2023-01-17T15:06:36.540Z,96391.41
2023-01-17T15:09:03.343Z,96380.38
2023-01-17T15:11:30.182Z,96382.88
2023-01-17T15:13:56.974Z,96363.38
2023-01-17T15:16:23.783Z,96362.91
2023-01-17T15:18:50.580Z,96366.97
2023-01-17T15:21:17.410Z,96371.84
2023-01-17T15:23:44.377Z,96363.88
2023-01-17T15:26:11.405Z,96359.22
2023-01-17T15:28:38.240Z,96361.50
2023-01-17T15:31:05.194Z,96358.44
2023-01-17T15:33:32.011Z,96361.75
2023-01-17T15:35:58.886Z,96364.94
2023-01-17T15:38:25.753Z,96365.53
2023-01-17T15:40:52.556Z,96363.97
2023-01-17T15:43:19.444Z,96366.44
2023-01-17T15:45:46.588Z,96367.44
2023-01-17T15:48:13.530Z,96365.50
2023-01-17T15:50:40.441Z,96365.13
2023-01-17T15:53:07.273Z,96368.22
2023-01-17T15:55:34.269Z,96365.75
2023-01-17T15:58:01.076Z,96366.25
2023-01-17T16:00:28.018Z,96365.53
2023-01-17T16:02:54.853Z,96369.31
2023-01-17T16:05:22.285Z,96378.59
2023-01-17T16:07:49.292Z,96370.25
2023-01-17T16:10:16.128Z,96373.38
2023-01-17T16:12:42.870Z,96368.16
2023-01-17T16:15:13.112Z,96359.47
2023-01-17T16:17:40.361Z,96366.97
2023-01-17T16:20:07.232Z,96358.84
2023-01-17T16:22:34.131Z,96366.16
2023-01-17T16:25:01.017Z,96378.69
2023-01-17T16:27:27.717Z,96375.66
2023-01-17T16:29:56.398Z,96374.00
2023-01-17T16:32:24.122Z,96381.09
2023-01-17T16:34:51.324Z,96383.84
2023-01-17T16:37:18.842Z,96384.19
2023-01-17T16:39:46.624Z,96378.38
2023-01-17T16:42:13.549Z,96381.69
2023-01-17T16:44:40.556Z,96372.66
2023-01-17T16:47:07.462Z,96376.09
2023-01-17T16:49:34.281Z,96378.09
2023-01-17T16:52:01.087Z,96383.47
2023-01-17T16:54:27.948Z,96390.00
2023-01-17T16:56:54.835Z,96403.31
2023-01-17T16:59:21.608Z,96390.38
2023-01-17T17:01:48.728Z,96388.59
2023-01-17T17:04:15.810Z,96390.25
2023-01-17T17:06:43.002Z,96397.34
2023-01-17T17:09:10.147Z,96390.13
2023-01-17T17:11:36.946Z,96398.31
2023-01-17T17:14:04.038Z,96396.66
2023-01-17T17:16:33.961Z,96394.41
2023-01-17T17:19:03.419Z,96400.44
2023-01-17T17:21:30.240Z,96404.13
2023-01-17T17:23:57.112Z,96400.34
2023-01-17T17:26:24.354Z,96407.09
2023-01-17T17:28:51.256Z,96407.59
2023-01-17T17:31:18.127Z,96401.16
2023-01-17T17:33:45.346Z,96407.56
2023-01-17T17:36:12.479Z,96399.00
2023-01-17T17:38:39.565Z,96394.16
2023-01-17T17:41:06.550Z,96393.78
2023-01-17T17:43:33.616Z,96388.13
2023-01-17T17:46:01.608Z,96377.06
2023-01-17T17:48:29.978Z,96378.50
2023-01-17T17:50:59.521Z,96377.78
2023-01-17T17:53:26.700Z,96376.13
2023-01-17T17:55:54.037Z,96375.53
2023-01-17T17:58:21.267Z,96375.41
2023-01-17T18:00:48.970Z,96357.22
2023-01-17T18:03:16.149Z,96359.47
2023-01-17T18:05:43.385Z,96352.47
2023-01-17T18:08:10.671Z,96345.72
2023-01-17T18:10:37.690Z,96341.94
2023-01-17T18:13:07.504Z,96338.25
2023-01-17T18:15:35.062Z,96330.16
2023-01-17T18:18:02.449Z,96328.53
2023-01-17T18:20:30.063Z,96327.69
2023-01-17T18:22:58.631Z,96327.69
2023-01-17T18:25:25.503Z,96331.13
2023-01-17T18:27:52.833Z,96336.13
2023-01-17T18:30:20.120Z,96337.78
2023-01-17T18:32:48.473Z,96352.97
2023-01-17T18:35:15.395Z,96345.38
2023-01-17T18:37:43.458Z,96352.03
2023-01-17T18:40:10.706Z,96345.13
2023-01-17T18:42:38.879Z,96331.88
2023-01-17T18:45:06.262Z,96332.09
2023-01-17T18:47:33.790Z,96323.56
2023-01-17T18:50:02.378Z,96322.47
2023-01-17T18:52:29.376Z,96329.84
2023-01-17T18:54:56.649Z,96324.03
2023-01-17T18:57:23.732Z,96316.91
2023-01-17T18:59:50.972Z,96313.00
2023-01-17T19:02:18.483Z,96309.31
2023-01-17T19:04:45.801Z,96307.66
2023-01-17T19:07:12.951Z,96305.16
2023-01-17T19:09:40.304Z,96304.31
2023-01-17T19:12:07.794Z,96305.75
2023-01-17T19:14:34.994Z,96304.91
2023-01-17T19:17:02.865Z,96310.25
2023-01-17T19:19:30.315Z,96303.59
2023-01-17T19:21:58.156Z,96294.13
2023-01-17T19:24:26.061Z,96278.69
2023-01-17T19:26:53.306Z,96273.44
2023-01-17T19:29:21.063Z,96264.63
2023-01-17T19:31:48.548Z,96260.06
2023-01-17T19:34:15.839Z,96255.25
2023-01-17T19:36:44.287Z,96258.66
2023-01-17T19:39:11.482Z,96251.78
2023-01-17T19:41:39.398Z,96250.88
2023-01-17T19:44:06.895Z,96252.66
2023-01-17T19:46:34.386Z,96258.16
2023-01-17T19:49:01.508Z,96244.63
2023-01-17T19:51:28.873Z,96244.75
2023-01-17T19:53:56.469Z,96246.59
2023-01-17T19:56:23.913Z,96242.25
2023-01-17T19:58:51.136Z,96249.06
2023-01-17T20:01:21.827Z,96249.53
2023-01-17T20:03:49.573Z,96246.34
2023-01-17T20:06:17.035Z,96234.59
2023-01-17T20:08:44.197Z,96247.06
2023-01-17T20:11:11.709Z,96245.88
2023-01-17T20:13:38.893Z,96253.47
2023-01-17T20:16:06.385Z,96258.72
2023-01-17T20:18:33.570Z,96249.69
2023-01-17T20:21:02.543Z,96246.81
2023-01-17T20:23:29.665Z,96244.78
2023-01-17T20:25:57.857Z,96239.56
2023-01-17T20:28:24.775Z,96241.25
2023-01-17T20:30:53.663Z,96240.03
2023-01-17T20:33:21.142Z,96213.66
2023-01-17T20:35:51.630Z,96218.91
2023-01-17T20:38:25.913Z,96217.94
2023-01-17T20:40:54.602Z,96227.47
2023-01-17T20:43:21.815Z,96222.00
2023-01-17T20:45:49.826Z,96231.44
2023-01-17T20:48:17.259Z,96223.28
2023-01-17T20:50:44.911Z,96232.81
2023-01-17T20:53:11.833Z,96242.88
2023-01-17T20:55:38.957Z,96237.38
2023-01-17T20:58:05.925Z,96239.09
2023-01-17T21:00:33.334Z,96233.88
2023-01-17T21:03:00.235Z,96225.22
2023-01-17T21:05:27.634Z,96232.09
2023-01-17T21:07:55.091Z,96235.28
2023-01-17T21:10:22.783Z,96229.34
2023-01-17T21:12:50.200Z,96229.13
2023-01-17T21:15:17.178Z,96232.66
2023-01-17T21:17:44.505Z,96234.81
2023-01-17T21:20:11.490Z,96234.00
2023-01-17T21:22:38.441Z,96241.13
2023-01-17T21:25:05.733Z,96244.44
2023-01-17T21:27:32.615Z,96244.56
2023-01-17T21:29:59.901Z,96235.19
2023-01-17T21:32:26.941Z,96230.09
2023-01-17T21:34:53.777Z,96230.09
2023-01-17T21:37:20.863Z,96228.22
2023-01-17T21:39:47.738Z,96217.28
2023-01-17T21:42:14.710Z,96218.00
2023-01-17T21:44:41.532Z,96210.25
2023-01-17T21:47:08.352Z,96199.03
2023-01-17T21:49:36.183Z,96200.91
2023-01-17T21:52:02.993Z,96199.47
2023-01-17T21:54:29.832Z,96199.03
2023-01-17T21:56:56.695Z,96203.53
2023-01-17T21:59:23.451Z,96208.28
2023-01-17T22:01:50.601Z,96203.03
2023-01-17T22:04:17.528Z,96190.38
2023-01-17T22:06:44.677Z,96196.63
2023-01-17T22:09:11.541Z,96200.69
2023-01-17T22:11:38.401Z,96195.00
2023-01-17T22:14:05.475Z,96194.88
2023-01-17T22:16:32.517Z,96200.91
2023-01-17T22:18:59.349Z,96201.59
2023-01-17T22:21:26.257Z,96203.78
2023-01-17T22:23:53.061Z,96201.88
2023-01-17T22:26:20.029Z,96209.69
2023-01-17T22:28:46.878Z,96216.22
2023-01-17T22:31:14.078Z,96218.22
2023-01-17T22:33:40.986Z,96227.72
2023-01-17T22:36:07.916Z,96226.53
2023-01-17T22:38:34.772Z,96226.03
2023-01-17T22:41:01.665Z,96228.66
2023-01-17T22:43:28.760Z,96227.22
2023-01-17T22:45:56.430Z,96224.13
2023-01-17T22:48:23.727Z,96225.56
2023-01-17T22:50:50.593Z,96222.03
2023-01-17T22:53:17.986Z,96218.00
2023-01-17T22:55:45.133Z,96205.44
2023-01-17T22:58:11.943Z,96217.28
2023-01-17T23:00:38.811Z,96204.72
2023-01-17T23:03:06.024Z,96198.19
2023-01-17T23:05:33.949Z,96201.41
2023-01-17T23:08:02.325Z,96192.53
2023-01-17T23:10:29.914Z,96191.91
2023-01-17T23:12:57.489Z,96192.16
2023-01-17T23:15:24.589Z,96185.72
2023-01-17T23:17:51.532Z,96182.06
2023-01-17T23:20:18.346Z,96185.50
2023-01-17T23:22:45.149Z,96188.09
2023-01-17T23:25:12.086Z,96183.34
2023-01-17T23:27:39.194Z,96188.81
2023-01-17T23:30:06.255Z,96185.94
2023-01-17T23:32:33.105Z,96192.59
2023-01-17T23:34:59.943Z,96189.16
2023-01-17T23:37:26.790Z,96191.66
2023-01-17T23:39:53.703Z,96188.47
2023-01-17T23:42:20.552Z,96186.69
2023-01-17T23:44:47.382Z,96185.50
2023-01-17T23:47:14.388Z,96188.72
2023-01-17T23:49:41.279Z,96183.25
2023-01-17T23:52:08.197Z,96181.84
2023-01-17T23:54:35.379Z,96190.63
2023-01-17T23:57:02.333Z,96185.28
2023-01-17T23:59:29.199Z,96186.34
